sensor_id;sensor_type;location;lat;lon;timestamp;pressure;altitude;pressure_sealevel;temperature;humidity
49583;BME280;36329;48.816;44.624;2023-05-12T00:00:09;101107;;;7.7;100
49583;BME280;36329;48.816;44.624;2023-05-12T00:03:11;101108;;;7.8;100
49583;BME280;36329;48.816;44.624;2023-05-12T00:06:13;101109;;;7.8;100
49583;BME280;36329;48.816;44.624;2023-05-12T00:09:15;101109;;;7.7;100
49583;BME280;36329;48.816;44.624;2023-05-12T00:12:16;101108;;;7.8;100
49583;BME280;36329;48.816;44.624;2023-05-12T00:15:18;101106;;;7.8;100
49583;BME280;36329;48.816;44.624;2023-05-12T00:18:20;101105;;;7.8;100
49583;BME280;36329;48.816;44.624;2023-05-12T00:21:22;101107;;;7.9;100
49583;BME280;36329;48.816;44.624;2023-05-12T00:24:24;101108;;;7.9;100
49583;BME280;36329;48.816;44.624;2023-05-12T00:27:26;101103;;;8;100
49583;BME280;36329;48.816;44.624;2023-05-12T00:30:28;101103;;;8;100
49583;BME280;36329;48.816;44.624;2023-05-12T00:33:30;101109;;;8;100
49583;BME280;36329;48.816;44.624;2023-05-12T00:36:33;101115;;;7.9;100
49583;BME280;36329;48.816;44.624;2023-05-12T00:39:34;101116;;;8;100
49583;BME280;36329;48.816;44.624;2023-05-12T00:42:37;101113;;;7.9;100
49583;BME280;36329;48.816;44.624;2023-05-12T00:45:39;101111;;;8;100
49583;BME280;36329;48.816;44.624;2023-05-12T00:48:42;101109;;;8.1;100
49583;BME280;36329;48.816;44.624;2023-05-12T00:51:44;101111;;;8;100
49583;BME280;36329;48.816;44.624;2023-05-12T00:54:47;101113;;;8;100
49583;BME280;36329;48.816;44.624;2023-05-12T00:57:50;101113;;;8;100
49583;BME280;36329;48.816;44.624;2023-05-12T01:00:52;101109;;;8;100
49583;BME280;36329;48.816;44.624;2023-05-12T01:03:54;101112;;;8;100
49583;BME280;36329;48.816;44.624;2023-05-12T01:06:59;101118;;;8;100
49583;BME280;36329;48.816;44.624;2023-05-12T01:10:15;101115;;;8.1;100
49583;BME280;36329;48.816;44.624;2023-05-12T01:13:18;101121;;;8.1;100
49583;BME280;36329;48.816;44.624;2023-05-12T01:16:22;101120;;;8.1;100
49583;BME280;36329;48.816;44.624;2023-05-12T01:19:33;101124;;;8.3;100
49583;BME280;36329;48.816;44.624;2023-05-12T01:22:39;101130;;;8.2;100
49583;BME280;36329;48.816;44.624;2023-05-12T01:25:42;101134;;;8.3;100
49583;BME280;36329;48.816;44.624;2023-05-12T01:28:45;101133;;;8.4;100
49583;BME280;36329;48.816;44.624;2023-05-12T01:31:48;101132;;;8.3;100
49583;BME280;36329;48.816;44.624;2023-05-12T01:34:50;101137;;;8.5;100
49583;BME280;36329;48.816;44.624;2023-05-12T01:37:52;101134;;;8.5;100
49583;BME280;36329;48.816;44.624;2023-05-12T01:40:55;101134;;;8.5;100
49583;BME280;36329;48.816;44.624;2023-05-12T01:43:57;101135;;;8.5;100
49583;BME280;36329;48.816;44.624;2023-05-12T01:46:58;101134;;;8.4;100
49583;BME280;36329;48.816;44.624;2023-05-12T01:50:00;101147;;;8.3;100
49583;BME280;36329;48.816;44.624;2023-05-12T01:53:02;101137;;;8.4;100
49583;BME280;36329;48.816;44.624;2023-05-12T01:56:04;101142;;;8.5;100
49583;BME280;36329;48.816;44.624;2023-05-12T01:59:06;101148;;;8.6;100
49583;BME280;36329;48.816;44.624;2023-05-12T02:02:09;101147;;;8.6;100
49583;BME280;36329;48.816;44.624;2023-05-12T02:05:10;101149;;;8.5;100
49583;BME280;36329;48.816;44.624;2023-05-12T02:08:12;101148;;;8.6;100
49583;BME280;36329;48.816;44.624;2023-05-12T02:11:15;101148;;;8.8;100
49583;BME280;36329;48.816;44.624;2023-05-12T02:14:17;101143;;;8.7;100
49583;BME280;36329;48.816;44.624;2023-05-12T02:17:19;101144;;;8.7;100
49583;BME280;36329;48.816;44.624;2023-05-12T02:20:21;101143;;;8.9;100
49583;BME280;36329;48.816;44.624;2023-05-12T02:23:24;101145;;;9;100
49583;BME280;36329;48.816;44.624;2023-05-12T02:26:26;101144;;;9;100
49583;BME280;36329;48.816;44.624;2023-05-12T02:29:28;101154;;;9.1;100
49583;BME280;36329;48.816;44.624;2023-05-12T02:32:30;101150;;;9;100
49583;BME280;36329;48.816;44.624;2023-05-12T02:35:32;101155;;;9.1;100
49583;BME280;36329;48.816;44.624;2023-05-12T02:38:34;101163;;;9.2;100
49583;BME280;36329;48.816;44.624;2023-05-12T02:41:36;101161;;;9.3;100
49583;BME280;36329;48.816;44.624;2023-05-12T02:44:38;101162;;;9.3;100
49583;BME280;36329;48.816;44.624;2023-05-12T02:47:40;101160;;;9.4;100
49583;BME280;36329;48.816;44.624;2023-05-12T02:50:42;101162;;;9.7;100
49583;BME280;36329;48.816;44.624;2023-05-12T02:53:44;101169;;;9.8;100
49583;BME280;36329;48.816;44.624;2023-05-12T02:56:45;101173;;;10;100
49583;BME280;36329;48.816;44.624;2023-05-12T02:59:47;101176;;;10.2;100
49583;BME280;36329;48.816;44.624;2023-05-12T03:02:49;101165;;;10.1;100
49583;BME280;36329;48.816;44.624;2023-05-12T03:05:51;101171;;;10.2;100
49583;BME280;36329;48.816;44.624;2023-05-12T03:08:53;101168;;;10.4;100
49583;BME280;36329;48.816;44.624;2023-05-12T03:11:55;101175;;;10.6;100
49583;BME280;36329;48.816;44.624;2023-05-12T03:14:57;101181;;;10.8;100
49583;BME280;36329;48.816;44.624;2023-05-12T03:17:59;101180;;;10.9;100
49583;BME280;36329;48.816;44.624;2023-05-12T03:21:00;101181;;;10.7;100
49583;BME280;36329;48.816;44.624;2023-05-12T03:24:03;101183;;;10.7;100
49583;BME280;36329;48.816;44.624;2023-05-12T03:27:05;101183;;;10.8;100
49583;BME280;36329;48.816;44.624;2023-05-12T03:30:08;101186;;;10.8;100
49583;BME280;36329;48.816;44.624;2023-05-12T03:33:10;101190;;;10.9;100
49583;BME280;36329;48.816;44.624;2023-05-12T03:36:12;101200;;;10.8;100
49583;BME280;36329;48.816;44.624;2023-05-12T03:39:13;101198;;;10.8;99.9
49583;BME280;36329;48.816;44.624;2023-05-12T03:42:15;101206;;;10.7;100
49583;BME280;36329;48.816;44.624;2023-05-12T03:45:18;101201;;;10.7;100
49583;BME280;36329;48.816;44.624;2023-05-12T03:48:19;101207;;;10.7;99.3
49583;BME280;36329;48.816;44.624;2023-05-12T03:51:21;101208;;;10.7;98.9
49583;BME280;36329;48.816;44.624;2023-05-12T03:54:23;101207;;;10.7;99.1
49583;BME280;36329;48.816;44.624;2023-05-12T03:57:25;101212;;;10.7;98.9
49583;BME280;36329;48.816;44.624;2023-05-12T04:00:27;101209;;;10.6;100
49583;BME280;36329;48.816;44.624;2023-05-12T04:03:29;101217;;;10.6;100
49583;BME280;36329;48.816;44.624;2023-05-12T04:06:31;101222;;;10.6;100
49583;BME280;36329;48.816;44.624;2023-05-12T04:09:32;101222;;;10.8;100
49583;BME280;36329;48.816;44.624;2023-05-12T04:12:34;101223;;;10.9;100
49583;BME280;36329;48.816;44.624;2023-05-12T04:15:37;101228;;;10.8;100
49583;BME280;36329;48.816;44.624;2023-05-12T04:18:39;101227;;;10.7;100
49583;BME280;36329;48.816;44.624;2023-05-12T04:21:41;101219;;;10.8;99.8
49583;BME280;36329;48.816;44.624;2023-05-12T04:24:43;101222;;;11;98.4
49583;BME280;36329;48.816;44.624;2023-05-12T04:27:45;101225;;;11.4;96.8
49583;BME280;36329;48.816;44.624;2023-05-12T04:30:47;101226;;;11.4;94.1
49583;BME280;36329;48.816;44.624;2023-05-12T04:33:49;101222;;;11.4;93.9
49583;BME280;36329;48.816;44.624;2023-05-12T04:36:51;101223;;;11.8;91
49583;BME280;36329;48.816;44.624;2023-05-12T04:39:53;101228;;;11.9;90.6
49583;BME280;36329;48.816;44.624;2023-05-12T04:42:55;101228;;;12.1;90.3
49583;BME280;36329;48.816;44.624;2023-05-12T04:45:57;101230;;;12.3;88.2
49583;BME280;36329;48.816;44.624;2023-05-12T04:48:59;101225;;;12.6;87.2
49583;BME280;36329;48.816;44.624;2023-05-12T04:52:01;101223;;;12.7;84.8
49583;BME280;36329;48.816;44.624;2023-05-12T04:55:03;101227;;;12.4;87.1
49583;BME280;36329;48.816;44.624;2023-05-12T04:58:06;101228;;;12.1;88.8
49583;BME280;36329;48.816;44.624;2023-05-12T05:01:08;101230;;;11.7;89.7
49583;BME280;36329;48.816;44.624;2023-05-12T05:04:10;101235;;;12.2;89.4
49583;BME280;36329;48.816;44.624;2023-05-12T05:07:12;101229;;;12.6;85.4
49583;BME280;36329;48.816;44.624;2023-05-12T05:10:14;101237;;;12.6;83.5
49583;BME280;36329;48.816;44.624;2023-05-12T05:13:16;101231;;;13.1;82.4
49583;BME280;36329;48.816;44.624;2023-05-12T05:16:17;101234;;;13;80.8
49583;BME280;36329;48.816;44.624;2023-05-12T05:19:20;101235;;;12.2;83.5
49583;BME280;36329;48.816;44.624;2023-05-12T05:22:21;101236;;;12.5;83.9
49583;BME280;36329;48.816;44.624;2023-05-12T05:25:23;101232;;;13;80.5
49583;BME280;36329;48.816;44.624;2023-05-12T05:28:26;101238;;;13.4;76.6
49583;BME280;36329;48.816;44.624;2023-05-12T05:31:28;101244;;;13.8;74.9
49583;BME280;36329;48.816;44.624;2023-05-12T05:34:30;101241;;;13.9;73
49583;BME280;36329;48.816;44.624;2023-05-12T05:37:32;101254;;;13.6;75
49583;BME280;36329;48.816;44.624;2023-05-12T05:40:34;101258;;;13.6;75.4
49583;BME280;36329;48.816;44.624;2023-05-12T05:43:36;101254;;;13.5;74.8
49583;BME280;36329;48.816;44.624;2023-05-12T05:46:38;101254;;;12.9;75.9
49583;BME280;36329;48.816;44.624;2023-05-12T05:49:40;101256;;;12.8;78.4
49583;BME280;36329;48.816;44.624;2023-05-12T05:52:42;101253;;;12.9;76.7
49583;BME280;36329;48.816;44.624;2023-05-12T05:55:45;101253;;;13.1;77
49583;BME280;36329;48.816;44.624;2023-05-12T05:58:47;101252;;;13;75.6
49583;BME280;36329;48.816;44.624;2023-05-12T06:01:49;101256;;;12.7;76.3
49583;BME280;36329;48.816;44.624;2023-05-12T06:04:50;101256;;;13.5;74.9
49583;BME280;36329;48.816;44.624;2023-05-12T06:07:52;101262;;;13.4;73.5
49583;BME280;36329;48.816;44.624;2023-05-12T06:10:54;101258;;;12.9;76.7
49583;BME280;36329;48.816;44.624;2023-05-12T06:13:56;101253;;;13.1;76.9
49583;BME280;36329;48.816;44.624;2023-05-12T06:16:58;101252;;;12.9;75.5
49583;BME280;36329;48.816;44.624;2023-05-12T06:20:00;101253;;;13.1;75.3
49583;BME280;36329;48.816;44.624;2023-05-12T06:23:02;101253;;;13.2;75.9
49583;BME280;36329;48.816;44.624;2023-05-12T06:26:04;101253;;;13.4;76.3
49583;BME280;36329;48.816;44.624;2023-05-12T06:29:07;101253;;;13.9;75.2
49583;BME280;36329;48.816;44.624;2023-05-12T06:32:09;101259;;;13.8;72.4
49583;BME280;36329;48.816;44.624;2023-05-12T06:35:11;101260;;;13.6;73.3
49583;BME280;36329;48.816;44.624;2023-05-12T06:38:13;101276;;;13.8;74
49583;BME280;36329;48.816;44.624;2023-05-12T06:41:15;101266;;;14.2;72.1
49583;BME280;36329;48.816;44.624;2023-05-12T06:44:17;101259;;;14.9;68.9
49583;BME280;36329;48.816;44.624;2023-05-12T06:47:19;101270;;;15.5;64.8
49583;BME280;36329;48.816;44.624;2023-05-12T06:50:21;101274;;;15.1;67.6
49583;BME280;36329;48.816;44.624;2023-05-12T06:53:23;101266;;;14.4;68
49583;BME280;36329;48.816;44.624;2023-05-12T06:56:25;101269;;;15.3;64.6
49583;BME280;36329;48.816;44.624;2023-05-12T06:59:27;101265;;;16.5;60.9
49583;BME280;36329;48.816;44.624;2023-05-12T07:02:29;101267;;;16;59.2
49583;BME280;36329;48.816;44.624;2023-05-12T07:05:31;101254;;;15.6;60.9
49583;BME280;36329;48.816;44.624;2023-05-12T07:08:33;101280;;;16.1;63.7
49583;BME280;36329;48.816;44.624;2023-05-12T07:11:35;101274;;;16.8;59.6
49583;BME280;36329;48.816;44.624;2023-05-12T07:14:37;101269;;;16.5;59.2
49583;BME280;36329;48.816;44.624;2023-05-12T07:17:39;101278;;;16.9;58.9
49583;BME280;36329;48.816;44.624;2023-05-12T07:20:41;101267;;;17.1;57.5
49583;BME280;36329;48.816;44.624;2023-05-12T07:23:43;101272;;;16.7;57.6
49583;BME280;36329;48.816;44.624;2023-05-12T07:26:45;101270;;;17.4;55.7
49583;BME280;36329;48.816;44.624;2023-05-12T07:29:47;101269;;;17.6;58.8
49583;BME280;36329;48.816;44.624;2023-05-12T07:32:50;101269;;;18.6;50.7
49583;BME280;36329;48.816;44.624;2023-05-12T07:35:52;101271;;;19.3;48.3
49583;BME280;36329;48.816;44.624;2023-05-12T07:38:54;101263;;;18.3;50
49583;BME280;36329;48.816;44.624;2023-05-12T07:41:56;101274;;;17.9;51.4
49583;BME280;36329;48.816;44.624;2023-05-12T07:44:58;101273;;;18;51.9
49583;BME280;36329;48.816;44.624;2023-05-12T07:48:00;101265;;;17.3;55.7
49583;BME280;36329;48.816;44.624;2023-05-12T07:51:02;101273;;;16.8;54.3
49583;BME280;36329;48.816;44.624;2023-05-12T07:54:04;101273;;;16.3;58
49583;BME280;36329;48.816;44.624;2023-05-12T07:57:06;101272;;;16.5;57.8
49583;BME280;36329;48.816;44.624;2023-05-12T08:00:09;101280;;;16.4;56.3
49583;BME280;36329;48.816;44.624;2023-05-12T08:03:11;101280;;;16.4;58.1
49583;BME280;36329;48.816;44.624;2023-05-12T08:06:13;101277;;;17.8;52.7
49583;BME280;36329;48.816;44.624;2023-05-12T08:09:15;101274;;;18.2;52.3
49583;BME280;36329;48.816;44.624;2023-05-12T08:12:17;101275;;;18.5;52.2
49583;BME280;36329;48.816;44.624;2023-05-12T08:15:19;101282;;;18.1;51.4
49583;BME280;36329;48.816;44.624;2023-05-12T08:18:21;101291;;;17.3;52.8
49583;BME280;36329;48.816;44.624;2023-05-12T08:21:23;101286;;;16.8;54.1
49583;BME280;36329;48.816;44.624;2023-05-12T08:24:25;101288;;;17.8;50.9
49583;BME280;36329;48.816;44.624;2023-05-12T08:27:27;101296;;;17.3;54
49583;BME280;36329;48.816;44.624;2023-05-12T08:30:29;101291;;;18.5;50.5
49583;BME280;36329;48.816;44.624;2023-05-12T08:33:33;101292;;;18.2;50.1
49583;BME280;36329;48.816;44.624;2023-05-12T08:36:35;101285;;;18.6;47.7
49583;BME280;36329;48.816;44.624;2023-05-12T08:39:37;101294;;;18;49.9
49583;BME280;36329;48.816;44.624;2023-05-12T08:42:42;101287;;;19.3;47.1
49583;BME280;36329;48.816;44.624;2023-05-12T08:45:45;101284;;;19.1;48.2
49583;BME280;36329;48.816;44.624;2023-05-12T08:48:49;101292;;;18.1;48.7
49583;BME280;36329;48.816;44.624;2023-05-12T08:51:53;101291;;;17.4;51.5
49583;BME280;36329;48.816;44.624;2023-05-12T08:54:58;101298;;;16.8;52.7
49583;BME280;36329;48.816;44.624;2023-05-12T08:58:01;101285;;;16.9;51.4
49583;BME280;36329;48.816;44.624;2023-05-12T09:01:05;101293;;;17.6;49.6
49583;BME280;36329;48.816;44.624;2023-05-12T09:04:07;101291;;;17.6;50.5
49583;BME280;36329;48.816;44.624;2023-05-12T09:07:09;101284;;;17.3;51.8
49583;BME280;36329;48.816;44.624;2023-05-12T09:10:14;101293;;;17.7;49.4
49583;BME280;36329;48.816;44.624;2023-05-12T09:13:23;101288;;;17.5;50.4
49583;BME280;36329;48.816;44.624;2023-05-12T09:16:29;101288;;;17.2;51.2
49583;BME280;36329;48.816;44.624;2023-05-12T09:19:31;101292;;;17.1;51.1
49583;BME280;36329;48.816;44.624;2023-05-12T09:22:33;101306;;;18.1;48.2
49583;BME280;36329;48.816;44.624;2023-05-12T09:25:36;101299;;;17.9;49.6
49583;BME280;36329;48.816;44.624;2023-05-12T09:28:38;101303;;;17.5;49.8
49583;BME280;36329;48.816;44.624;2023-05-12T09:31:48;101303;;;16.9;50.2
49583;BME280;36329;48.816;44.624;2023-05-12T09:34:50;101289;;;16.6;51
49583;BME280;36329;48.816;44.624;2023-05-12T09:37:53;101297;;;17.3;50.6
49583;BME280;36329;48.816;44.624;2023-05-12T09:40:55;101291;;;18;47.9
49583;BME280;36329;48.816;44.624;2023-05-12T09:43:59;101291;;;17.7;49.4
49583;BME280;36329;48.816;44.624;2023-05-12T09:47:05;101286;;;17.5;51.8
49583;BME280;36329;48.816;44.624;2023-05-12T09:50:08;101290;;;17.3;50.9
49583;BME280;36329;48.816;44.624;2023-05-12T09:53:10;101285;;;17.6;51.5
49583;BME280;36329;48.816;44.624;2023-05-12T09:56:13;101291;;;17.6;51.2
49583;BME280;36329;48.816;44.624;2023-05-12T09:59:16;101282;;;17.2;51.5
49583;BME280;36329;48.816;44.624;2023-05-12T10:02:19;101292;;;17;51.9
49583;BME280;36329;48.816;44.624;2023-05-12T10:05:21;101295;;;17.9;51.2
49583;BME280;36329;48.816;44.624;2023-05-12T10:08:26;101282;;;18.4;49.1
49583;BME280;36329;48.816;44.624;2023-05-12T10:11:31;101289;;;17.8;49.8
49583;BME280;36329;48.816;44.624;2023-05-12T10:14:33;101292;;;18.2;49.1
49583;BME280;36329;48.816;44.624;2023-05-12T10:17:36;101297;;;18.3;49
49583;BME280;36329;48.816;44.624;2023-05-12T10:20:38;101293;;;17.8;48.8
49583;BME280;36329;48.816;44.624;2023-05-12T10:23:42;101303;;;17.5;49.7
49583;BME280;36329;48.816;44.624;2023-05-12T10:26:45;101303;;;17.4;51.5
49583;BME280;36329;48.816;44.624;2023-05-12T10:29:47;101314;;;17.1;54.4
49583;BME280;36329;48.816;44.624;2023-05-12T10:32:50;101317;;;17;54.1
49583;BME280;36329;48.816;44.624;2023-05-12T10:35:52;101314;;;17.1;53.8
49583;BME280;36329;48.816;44.624;2023-05-12T10:38:54;101296;;;17.4;54.8
49583;BME280;36329;48.816;44.624;2023-05-12T10:42:00;101304;;;17.3;52.1
49583;BME280;36329;48.816;44.624;2023-05-12T10:45:14;101310;;;17.4;53
49583;BME280;36329;48.816;44.624;2023-05-12T10:48:16;101305;;;17.4;52.9
49583;BME280;36329;48.816;44.624;2023-05-12T10:51:19;101306;;;17;55.6
49583;BME280;36329;48.816;44.624;2023-05-12T10:54:24;101315;;;16.8;54.9
49583;BME280;36329;48.816;44.624;2023-05-12T10:57:27;101316;;;16.7;56
49583;BME280;36329;48.816;44.624;2023-05-12T11:00:29;101323;;;17.2;55.8
49583;BME280;36329;48.816;44.624;2023-05-12T11:03:31;101314;;;17.7;53.4
49583;BME280;36329;48.816;44.624;2023-05-12T11:06:33;101318;;;17.6;54.1
49583;BME280;36329;48.816;44.624;2023-05-12T11:09:37;101317;;;17.4;55
49583;BME280;36329;48.816;44.624;2023-05-12T11:12:41;101317;;;16.9;54.1
49583;BME280;36329;48.816;44.624;2023-05-12T11:15:44;101318;;;16.8;56.2
49583;BME280;36329;48.816;44.624;2023-05-12T11:18:46;101332;;;16.6;57.1
49583;BME280;36329;48.816;44.624;2023-05-12T11:21:48;101325;;;16.7;57.8
49583;BME280;36329;48.816;44.624;2023-05-12T11:24:50;101330;;;17;55.8
49583;BME280;36329;48.816;44.624;2023-05-12T11:27:53;101326;;;17.3;53.7
49583;BME280;36329;48.816;44.624;2023-05-12T11:30:55;101325;;;17.6;52.6
49583;BME280;36329;48.816;44.624;2023-05-12T11:34:06;101330;;;17.5;50.9
49583;BME280;36329;48.816;44.624;2023-05-12T11:37:09;101320;;;17.7;51.1
49583;BME280;36329;48.816;44.624;2023-05-12T11:40:15;101315;;;17.7;52.5
49583;BME280;36329;48.816;44.624;2023-05-12T11:43:19;101316;;;17.9;51.2
49583;BME280;36329;48.816;44.624;2023-05-12T11:46:23;101313;;;18;52
49583;BME280;36329;48.816;44.624;2023-05-12T11:49:26;101323;;;17.7;52.4
49583;BME280;36329;48.816;44.624;2023-05-12T11:52:28;101326;;;17.5;52.6
49583;BME280;36329;48.816;44.624;2023-05-12T11:55:30;101312;;;17.4;52.6
49583;BME280;36329;48.816;44.624;2023-05-12T11:58:32;101315;;;17.2;53.5
49583;BME280;36329;48.816;44.624;2023-05-12T12:01:42;101317;;;16.9;54.2
49583;BME280;36329;48.816;44.624;2023-05-12T12:04:45;101321;;;17.2;53.4
49583;BME280;36329;48.816;44.624;2023-05-12T12:07:48;101323;;;17.4;51.9
49583;BME280;36329;48.816;44.624;2023-05-12T12:10:50;101326;;;17.4;53.7
49583;BME280;36329;48.816;44.624;2023-05-12T12:13:53;101326;;;17.4;52.8
49583;BME280;36329;48.816;44.624;2023-05-12T12:16:55;101319;;;17.1;53.6
49583;BME280;36329;48.816;44.624;2023-05-12T12:19:57;101338;;;17;53.4
49583;BME280;36329;48.816;44.624;2023-05-12T12:23:00;101339;;;16.8;54.5
49583;BME280;36329;48.816;44.624;2023-05-12T12:26:02;101342;;;16.6;57.9
49583;BME280;36329;48.816;44.624;2023-05-12T12:29:04;101348;;;16.6;56.1
49583;BME280;36329;48.816;44.624;2023-05-12T12:32:06;101350;;;16.5;57.6
49583;BME280;36329;48.816;44.624;2023-05-12T12:35:08;101355;;;16.6;58.5
49583;BME280;36329;48.816;44.624;2023-05-12T12:38:10;101359;;;16.5;59.1
49583;BME280;36329;48.816;44.624;2023-05-12T12:41:13;101362;;;16.3;60.1
49583;BME280;36329;48.816;44.624;2023-05-12T12:44:15;101353;;;16.1;60.6
49583;BME280;36329;48.816;44.624;2023-05-12T12:47:17;101367;;;16.1;59.7
49583;BME280;36329;48.816;44.624;2023-05-12T12:50:19;101370;;;15.9;60.2
49583;BME280;36329;48.816;44.624;2023-05-12T12:53:21;101379;;;15.8;61.3
49583;BME280;36329;48.816;44.624;2023-05-12T12:56:23;101381;;;15.7;62.4
49583;BME280;36329;48.816;44.624;2023-05-12T12:59:25;101384;;;15.5;64.3
49583;BME280;36329;48.816;44.624;2023-05-12T13:02:27;101388;;;15.4;65.8
49583;BME280;36329;48.816;44.624;2023-05-12T13:05:29;101392;;;15.5;66.2
49583;BME280;36329;48.816;44.624;2023-05-12T13:08:31;101394;;;15.5;67.1
49583;BME280;36329;48.816;44.624;2023-05-12T13:11:33;101392;;;15.6;67.5
49583;BME280;36329;48.816;44.624;2023-05-12T13:14:35;101398;;;15.6;66.9
49583;BME280;36329;48.816;44.624;2023-05-12T13:17:37;101403;;;15.9;65.9
49583;BME280;36329;48.816;44.624;2023-05-12T13:20:39;101402;;;16;63.6
49583;BME280;36329;48.816;44.624;2023-05-12T13:23:41;101400;;;16.1;62
49583;BME280;36329;48.816;44.624;2023-05-12T13:26:43;101399;;;16.2;59.5
49583;BME280;36329;48.816;44.624;2023-05-12T13:29:45;101391;;;16;60.3
49583;BME280;36329;48.816;44.624;2023-05-12T13:32:47;101393;;;16;58.2
49583;BME280;36329;48.816;44.624;2023-05-12T13:35:49;101407;;;16;57.9
49583;BME280;36329;48.816;44.624;2023-05-12T13:38:51;101412;;;15.9;57.3
49583;BME280;36329;48.816;44.624;2023-05-12T13:41:53;101409;;;15.8;55.9
49583;BME280;36329;48.816;44.624;2023-05-12T13:44:55;101409;;;15.9;55.9
49583;BME280;36329;48.816;44.624;2023-05-12T13:47:56;101410;;;15.7;56.7
49583;BME280;36329;48.816;44.624;2023-05-12T13:50:58;101411;;;15.5;57.7
49583;BME280;36329;48.816;44.624;2023-05-12T13:54:00;101414;;;15.5;58.8
49583;BME280;36329;48.816;44.624;2023-05-12T13:57:03;101413;;;15.5;58.6
49583;BME280;36329;48.816;44.624;2023-05-12T14:00:05;101406;;;15.6;59.2
49583;BME280;36329;48.816;44.624;2023-05-12T14:03:08;101404;;;15.7;59.4
49583;BME280;36329;48.816;44.624;2023-05-12T14:06:11;101406;;;15.7;60.1
49583;BME280;36329;48.816;44.624;2023-05-12T14:09:13;101394;;;15.4;60.3
49583;BME280;36329;48.816;44.624;2023-05-12T14:12:15;101402;;;15.3;61
49583;BME280;36329;48.816;44.624;2023-05-12T14:15:17;101405;;;15.3;62
49583;BME280;36329;48.816;44.624;2023-05-12T14:18:19;101408;;;15.5;62
49583;BME280;36329;48.816;44.624;2023-05-12T14:21:21;101407;;;15.6;62.1
49583;BME280;36329;48.816;44.624;2023-05-12T14:24:24;101406;;;15.7;61.7
49583;BME280;36329;48.816;44.624;2023-05-12T14:27:25;101408;;;15.6;61.4
49583;BME280;36329;48.816;44.624;2023-05-12T14:30:28;101418;;;15.6;60.5
49583;BME280;36329;48.816;44.624;2023-05-12T14:33:30;101418;;;15.6;57.9
49583;BME280;36329;48.816;44.624;2023-05-12T14:36:32;101419;;;15.5;56.6
49583;BME280;36329;48.816;44.624;2023-05-12T14:39:34;101415;;;15.5;56.6
49583;BME280;36329;48.816;44.624;2023-05-12T14:42:36;101413;;;15.4;56.2
49583;BME280;36329;48.816;44.624;2023-05-12T14:45:38;101414;;;15.5;55.9
49583;BME280;36329;48.816;44.624;2023-05-12T14:48:40;101424;;;15.5;55.7
49583;BME280;36329;48.816;44.624;2023-05-12T14:51:42;101420;;;15.6;55.3
49583;BME280;36329;48.816;44.624;2023-05-12T14:54:44;101423;;;15.5;55.2
49583;BME280;36329;48.816;44.624;2023-05-12T14:57:46;101423;;;15.3;56.3
49583;BME280;36329;48.816;44.624;2023-05-12T15:00:49;101428;;;15.3;56.7
49583;BME280;36329;48.816;44.624;2023-05-12T15:03:51;101421;;;15.3;56.9
49583;BME280;36329;48.816;44.624;2023-05-12T15:06:53;101426;;;15.2;56.9
49583;BME280;36329;48.816;44.624;2023-05-12T15:09:55;101429;;;15.2;57.3
49583;BME280;36329;48.816;44.624;2023-05-12T15:12:57;101436;;;15.3;57.7
49583;BME280;36329;48.816;44.624;2023-05-12T15:15:59;101440;;;15.3;57.8
49583;BME280;36329;48.816;44.624;2023-05-12T15:19:01;101445;;;15.4;58.3
49583;BME280;36329;48.816;44.624;2023-05-12T15:22:03;101456;;;15.3;58.8
49583;BME280;36329;48.816;44.624;2023-05-12T15:25:05;101467;;;15.3;59.1
49583;BME280;36329;48.816;44.624;2023-05-12T15:28:08;101459;;;15.2;59.6
49583;BME280;36329;48.816;44.624;2023-05-12T15:31:10;101445;;;15.1;59.8
49583;BME280;36329;48.816;44.624;2023-05-12T15:34:12;101434;;;15.1;60
49583;BME280;36329;48.816;44.624;2023-05-12T15:37:14;101434;;;15.2;59.7
49583;BME280;36329;48.816;44.624;2023-05-12T15:40:16;101446;;;15.2;59
49583;BME280;36329;48.816;44.624;2023-05-12T15:43:18;101451;;;15;59.1
49583;BME280;36329;48.816;44.624;2023-05-12T15:46:20;101453;;;14.9;59.2
49583;BME280;36329;48.816;44.624;2023-05-12T15:49:22;101460;;;14.9;59.2
49583;BME280;36329;48.816;44.624;2023-05-12T15:52:24;101455;;;14.7;59.8
49583;BME280;36329;48.816;44.624;2023-05-12T15:55:26;101458;;;14.6;60.6
49583;BME280;36329;48.816;44.624;2023-05-12T15:58:29;101459;;;14.6;60.8
49583;BME280;36329;48.816;44.624;2023-05-12T16:01:31;101468;;;14.5;61.2
49583;BME280;36329;48.816;44.624;2023-05-12T16:04:33;101470;;;14.4;61.7
49583;BME280;36329;48.816;44.624;2023-05-12T16:07:35;101475;;;14.3;61.5
49583;BME280;36329;48.816;44.624;2023-05-12T16:10:38;101478;;;14.2;62
49583;BME280;36329;48.816;44.624;2023-05-12T16:13:40;101484;;;14.1;62.9
49583;BME280;36329;48.816;44.624;2023-05-12T16:16:41;101487;;;14.1;62.9
49583;BME280;36329;48.816;44.624;2023-05-12T16:19:43;101488;;;14;63.2
49583;BME280;36329;48.816;44.624;2023-05-12T16:22:46;101489;;;14;63.5
49583;BME280;36329;48.816;44.624;2023-05-12T16:25:48;101487;;;14;63.6
49583;BME280;36329;48.816;44.624;2023-05-12T16:28:50;101486;;;13.9;63.7
49583;BME280;36329;48.816;44.624;2023-05-12T16:31:53;101486;;;13.8;64.1
49583;BME280;36329;48.816;44.624;2023-05-12T16:34:55;101499;;;13.8;64.7
49583;BME280;36329;48.816;44.624;2023-05-12T16:37:57;101508;;;13.7;65
49583;BME280;36329;48.816;44.624;2023-05-12T16:40:59;101517;;;13.8;64.9
49583;BME280;36329;48.816;44.624;2023-05-12T16:44:01;101522;;;13.8;64.8
49583;BME280;36329;48.816;44.624;2023-05-12T16:47:03;101530;;;13.7;64.9
49583;BME280;36329;48.816;44.624;2023-05-12T16:50:06;101541;;;13.5;66
49583;BME280;36329;48.816;44.624;2023-05-12T16:53:08;101543;;;13.5;66.5
49583;BME280;36329;48.816;44.624;2023-05-12T16:56:10;101548;;;13.2;67.9